チューク諸島 の空港の天気 - METARとTAF

チューク国際空港 ( PTKK / TKK ) - ミクロネシア連邦 チューク諸島
飛行場実況気象(Metar)
観測時間10/22 21:50 +10 (10/22 11:50 UTC)
風向・風速北北東 5m/s
視程10km以上
天気現象
少しの雲 雲底高度 460m
全天の4割程度の雲 雲底高度 8840m
気温27.2℃
湿度92%
気圧1011.1hPa
METARPTKK 221150Z 02010KT 15SM FEW015 SCT290 27/26 A2985 RMK SLP111 8/101 T02720257 10306 20272 52014
過去の天気等 Google飛行場航空写真 Wunderground天気予報

過去48時間のMETAR

飛行場予報(TAF)
発表時間: 10/22 21:42 +10 (10/22 11:42 UTC)
予報対象時間: 22日22時 +10 ~ 23日22時 +10
風向・風速北北東 3m/s
視程10km以上
少しの雲 雲底高度 460m
23日10時 +10 から
風向・風速東北東 6m/s
視程10km以上
天気現象周辺でしゅう雨
全天の4割程度の雲 雲底高度 460m
全天の4割程度の雲 雲底高度 3660m
PTKK 221142Z 2212/2312 02006KT P6SM FEW015
FM230000 06011KT P6SM VCSH SCT015 SCT120